This is the latest recevied weather packets stored in our database for station/object KP4FJC. If no packets are shown the sender has not sent any weather packets the latest 10 day(s).
| Time | Temp. | Humidity | Pressure | Rain* | Wind** | Luminosity | Snow |
|---|---|---|---|---|---|---|---|
| 1778092153 | 33.89° C | 50% | 1017.1 hPa | 0 mm | - | 796 W/m² | - |
| 1778091850 | 33.33° C | 53% | 1017.2 hPa | 0 mm | - | 809 W/m² | - |
| 1778091547 | 32.78° C | 54% | 1017.1 hPa | 0 mm | - | 821 W/m² | - |
| 1778091245 | 33.33° C | 52% | 1017.2 hPa | 0 mm | - | 832 W/m² | - |
| 1778090941 | 33.33° C | 53% | 1017.2 hPa | 0 mm | - | 844 W/m² | - |
| 1778090637 | 32.78° C | 54% | 1017.3 hPa | 0 mm | - | 860 W/m² | - |
| 1778090334 | 33.33° C | 53% | 1017.4 hPa | 0 mm | - | 860 W/m² | - |
| 1778090031 | 33.33° C | 52% | 1017.4 hPa | 0 mm | - | 872 W/m² | - |
| 1778089728 | 33.33° C | 52% | 1017.6 hPa | 0 mm | - | 882 W/m² | - |
| 1778089426 | 33.33° C | 51% | 1017.7 hPa | 0 mm | - | 890 W/m² | - |
| 1778089123 | 32.78° C | 53% | 1017.9 hPa | 0 mm | - | 899 W/m² | - |
| 1778088819 | 32.78° C | 52% | 1018.1 hPa | 0 mm | - | 955 W/m² | - |
| 1778088517 | 32.78° C | 55% | 1018.1 hPa | 0 mm | - | 928 W/m² | - |
| 1778088213 | 32.78° C | 54% | 1018 hPa | 0 mm | - | 919 W/m² | - |
| 1778087911 | 32.78° C | 52% | 1018.2 hPa | 0 mm | - | 923 W/m² | - |
| 1778087608 | 33.33° C | 53% | 1018.3 hPa | 0 mm | - | 930 W/m² | - |
| 1778087305 | 32.78° C | 53% | 1018.6 hPa | 0 mm | - | 812 W/m² | - |
| 1778087001 | 33.89° C | 52% | 1018.6 hPa | 0 mm | - | 452 W/m² | - |
| 1778086700 | 32.78° C | 54% | 1018.6 hPa | 0 mm | - | 955 W/m² | - |
| 1778086398 | 32.78° C | 53% | 1018.8 hPa | 0 mm | - | 948 W/m² | - |
| 1778086094 | 32.22° C | 54% | 1018.7 hPa | 0 mm | - | 913 W/m² | - |
| 1778085791 | 32.78° C | 53% | 1018.8 hPa | 0 mm | - | 602 W/m² | - |
| 1778085488 | 32.78° C | 51% | 1019.1 hPa | 0 mm | - | 344 W/m² | - |
| 1778085182 | 32.78° C | 54% | 1019 hPa | 0 mm | - | 954 W/m² | - |
| 1778084878 | 32.78° C | 53% | 1019.3 hPa | 0 mm | - | 958 W/m² | - |
* Rain latest hour (hover to see other rain measurements)
** Current wind speed in m/s (hover to see current wind gust speed)